Time;durP1;ratioP1;P1;durP2;ratioP2;P2;SDS_P1;SDS_P2;PMS_P1;PMS_P2;Temp;Humidity;BMP_temperature;BMP_pressure;BME280_temperature;BME280_humidity;BME280_pressure;Samples;Min_cycle;Max_cycle;Signal;HPM_P1;HPM_P2
2022/01/16 00:00:40;;;;;;;16.10;9.02;;;;;;;-0.35;100.00;100074.47;4980201;28;20940;-62
2022/01/16 00:05:53;;;;;;;19.45;9.25;;;;;;;-0.37;100.00;100070.31;4984338;28;20496;-61
2022/01/16 00:08:18;;;;;;;10.75;6.72;;;;;;;-0.45;100.00;100065.78;4976948;28;20042;-61
2022/01/16 00:10:44;;;;;;;17.00;8.25;;;;;;;-0.39;100.00;100057.28;4967360;28;20204;-62
2022/01/16 00:13:09;;;;;;;17.95;10.13;;;;;;;-0.38;100.00;100079.19;4979466;28;20034;-61
2022/01/16 00:15:35;;;;;;;21.33;11.48;;;;;;;-0.28;100.00;100091.28;4975575;28;20916;-61
2022/01/16 00:18:10;;;;;;;18.58;10.57;;;;;;;-0.31;100.00;100090.78;4980289;28;20113;-60
2022/01/16 00:20:36;;;;;;;19.48;9.52;;;;;;;-0.32;100.00;100083.88;4979927;28;20050;-62
2022/01/16 00:23:04;;;;;;;18.75;9.25;;;;;;;-0.31;100.00;100065.25;4982130;28;20487;-61
2022/01/16 00:25:30;;;;;;;21.08;10.15;;;;;;;-0.30;100.00;100066.94;4983008;28;20073;-61
2022/01/16 00:27:55;;;;;;;17.45;8.73;;;;;;;-0.42;100.00;100054.97;4983615;28;20034;-61
2022/01/16 00:30:20;;;;;;;18.27;9.50;;;;;;;-0.41;100.00;100069.78;4981210;28;20051;-61
2022/01/16 00:32:46;;;;;;;16.95;10.23;;;;;;;-0.32;100.00;100068.88;4984367;28;20026;-61
2022/01/16 00:35:12;;;;;;;20.17;10.05;;;;;;;-0.34;100.00;100065.56;4983029;28;20423;-61
2022/01/16 00:37:38;;;;;;;18.02;10.15;;;;;;;-0.32;100.00;100070.69;4985373;28;20129;-61
2022/01/16 00:40:05;;;;;;;13.65;7.22;;;;;;;-0.40;100.00;100058.28;4978346;28;20065;-61
2022/01/16 00:42:30;;;;;;;17.40;9.88;;;;;;;-0.33;100.00;100061.13;4980616;28;20038;-61
2022/01/16 00:44:55;;;;;;;18.75;10.38;;;;;;;-0.34;100.00;100081.38;4982363;28;20038;-61
2022/01/16 00:47:21;;;;;;;19.67;10.35;;;;;;;-0.32;100.00;100082.06;4981159;28;20085;-61
2022/01/16 00:49:46;;;;;;;17.15;9.57;;;;;;;-0.35;100.00;100085.00;4978743;28;20054;-61
2022/01/16 00:52:12;;;;;;;13.48;7.72;;;;;;;-0.41;100.00;100090.84;4981540;28;20047;-61
2022/01/16 00:54:37;;;;;;;15.10;8.98;;;;;;;-0.45;100.00;100077.16;4982614;28;20030;-61
2022/01/16 00:57:03;;;;;;;14.80;8.60;;;;;;;-0.45;100.00;100066.63;4982198;28;20046;-61
2022/01/16 00:59:29;;;;;;;17.50;9.27;;;;;;;-0.46;100.00;100059.69;4977894;28;20510;-61
2022/01/16 01:01:54;;;;;;;17.52;9.00;;;;;;;-0.48;100.00;100092.44;4980730;28;20046;-61
2022/01/16 01:04:20;;;;;;;17.55;8.85;;;;;;;-0.45;100.00;100090.34;4976429;28;20041;-61
2022/01/16 01:06:48;;;;;;;14.43;7.75;;;;;;;-0.41;100.00;100101.38;4975982;28;20042;-61
2022/01/16 01:09:14;;;;;;;17.75;8.50;;;;;;;-0.46;100.00;100072.88;4982660;28;20046;-61
2022/01/16 01:11:42;;;;;;;17.30;8.68;;;;;;;-0.41;100.00;100072.41;4981992;28;20042;-61
2022/01/16 01:14:16;;;;;;;17.95;8.40;;;;;;;-0.47;100.00;100065.94;4984181;28;20088;-61
2022/01/16 01:17:00;;;;;;;16.88;7.88;;;;;;;-0.49;100.00;100069.72;4978555;28;20129;-61
2022/01/16 01:19:29;;;;;;;17.30;8.32;;;;;;;-0.45;100.00;100063.16;4972337;28;20031;-61
2022/01/16 01:21:55;;;;;;;17.13;8.45;;;;;;;-0.49;100.00;100082.88;4978858;28;20153;-61
2022/01/16 01:24:22;;;;;;;15.65;8.55;;;;;;;-0.56;100.00;100087.09;4975000;28;20124;-61
2022/01/16 01:27:01;;;;;;;14.90;8.10;;;;;;;-0.64;100.00;100097.53;4979658;28;20074;-61
2022/01/16 01:29:29;;;;;;;14.43;8.05;;;;;;;-0.73;100.00;100060.56;4982713;28;20534;-61
2022/01/16 01:31:54;;;;;;;14.10;8.00;;;;;;;-0.72;100.00;100014.88;4982414;28;20058;-61
2022/01/16 01:34:20;;;;;;;16.10;8.38;;;;;;;-0.78;100.00;100015.44;4974326;28;20430;-61
2022/01/16 01:36:48;;;;;;;14.70;8.20;;;;;;;-0.73;100.00;100002.66;4982427;28;20408;-61
2022/01/16 01:39:18;;;;;;;14.20;8.15;;;;;;;-0.77;100.00;100005.78;4977131;28;20437;-61
2022/01/16 01:41:43;;;;;;;15.88;9.20;;;;;;;-0.78;100.00;100004.91;4980717;28;20124;-61
2022/01/16 01:52:21;;;;;;;16.58;8.68;;;;;;;-0.85;100.00;100067.03;4981032;28;20108;-61
2022/01/16 01:54:46;;;;;;;20.50;11.48;;;;;;;-0.91;100.00;100065.00;4974586;28;20041;-61
2022/01/16 01:57:12;;;;;;;18.40;10.18;;;;;;;-1.01;100.00;100080.84;4980214;28;20635;-61
2022/01/16 01:59:39;;;;;;;22.05;11.32;;;;;;;-0.98;100.00;100082.34;4974705;28;20072;-61
2022/01/16 02:02:06;;;;;;;20.35;10.18;;;;;;;-0.91;100.00;100109.75;4980900;28;20038;-61
2022/01/16 02:04:31;;;;;;;25.48;11.07;;;;;;;-0.89;100.00;100089.38;4981727;28;20081;-61
2022/01/16 02:06:57;;;;;;;22.95;10.55;;;;;;;-0.89;100.00;100086.75;4982383;28;20212;-62
2022/01/16 02:09:22;;;;;;;23.00;9.80;;;;;;;-0.82;100.00;100082.56;4965068;28;20030;-61
2022/01/16 02:11:48;;;;;;;22.15;10.55;;;;;;;-0.87;100.00;100096.16;4978248;28;20466;-63
2022/01/16 02:14:26;;;;;;;20.63;10.80;;;;;;;-0.87;100.00;100100.59;4978566;28;20034;-62
2022/01/16 02:28:06;;;;;;;22.20;9.52;;;;;;;-0.58;100.00;100115.38;4977579;28;20057;-62
2022/01/16 02:35:35;;;;;;;17.10;9.95;;;;;;;-0.64;100.00;100137.03;4958174;28;20508;-62
2022/01/16 02:38:00;;;;;;;19.02;10.02;;;;;;;-0.51;100.00;100137.50;4982934;28;20125;-61
2022/01/16 02:40:27;;;;;;;18.20;10.00;;;;;;;-0.57;100.00;100111.78;4981932;28;20046;-62
2022/01/16 02:42:53;;;;;;;23.88;10.25;;;;;;;-0.59;100.00;100108.47;4979198;28;20460;-62
2022/01/16 02:45:31;;;;;;;21.73;10.35;;;;;;;-0.58;100.00;100099.56;4976461;28;20041;-62
2022/01/16 02:47:58;;;;;;;15.02;7.85;;;;;;;-0.55;100.00;100109.78;4995023;28;20472;-62
2022/01/16 02:50:23;;;;;;;16.50;8.65;;;;;;;-0.48;100.00;100105.59;4981421;28;20786;-62
2022/01/16 02:52:49;;;;;;;17.20;8.48;;;;;;;-0.52;100.00;100097.19;4982740;28;20023;-61
2022/01/16 02:55:16;;;;;;;22.45;8.95;;;;;;;-0.38;100.00;100090.53;4978828;28;20046;-62
2022/01/16 02:57:41;;;;;;;18.02;8.88;;;;;;;-0.41;100.00;100074.22;4975121;28;20468;-61
2022/01/16 03:00:07;;;;;;;17.60;8.55;;;;;;;-0.38;100.00;100076.56;4970277;28;20178;-60
2022/01/16 03:02:33;;;;;;;14.23;7.78;;;;;;;-0.37;100.00;100071.16;4976633;28;20448;-61
2022/01/16 03:04:58;;;;;;;14.57;7.45;;;;;;;-0.36;100.00;100066.69;4961885;28;20046;-61
2022/01/16 03:07:24;;;;;;;14.68;7.85;;;;;;;-0.40;100.00;100070.59;4977827;28;20035;-60
2022/01/16 03:10:17;;;;;;;15.57;7.00;;;;;;;-0.41;100.00;100061.88;4981032;28;20042;-60
2022/01/16 03:12:45;;;;;;;16.00;8.23;;;;;;;-0.39;100.00;100045.94;4968994;28;20062;-61
2022/01/16 03:15:10;;;;;;;14.98;8.23;;;;;;;-0.43;100.00;100054.13;4975450;28;20029;-61
2022/01/16 03:21:52;;;;;;;19.08;9.20;;;;;;;-0.43;100.00;100035.69;4981865;28;20034;-62
2022/01/16 03:23:05;;;;;;;16.48;7.82;;;;;;;-0.43;100.00;100035.69;4974567;28;20531;-62
2022/01/16 03:25:31;;;;;;;17.42;8.57;;;;;;;-0.38;100.00;100027.31;4984925;28;20050;-62
2022/01/16 03:27:56;;;;;;;19.38;8.98;;;;;;;-0.48;100.00;100024.78;4969072;28;20093;-62
2022/01/16 03:30:22;;;;;;;17.60;9.18;;;;;;;-0.41;100.00;100011.00;4981826;28;20097;-62
2022/01/16 03:32:47;;;;;;;18.83;10.05;;;;;;;-0.46;100.00;100011.47;4980911;28;20023;-62
2022/01/16 03:35:12;;;;;;;11.80;5.72;;;;;;;-0.50;100.00;100010.94;4979040;28;20030;-62
2022/01/16 03:37:40;;;;;;;19.23;9.18;;;;;;;-0.45;100.00;100010.47;4985871;28;20656;-62
2022/01/16 03:40:10;;;;;;;17.98;9.55;;;;;;;-0.52;100.00;100014.72;4985539;28;20503;-63
2022/01/16 03:42:36;;;;;;;17.63;9.07;;;;;;;-0.53;100.00;100010.41;4985884;28;20077;-60
2022/01/16 03:45:03;;;;;;;15.07;8.63;;;;;;;-0.46;100.00;100003.56;4976846;28;20045;-61
2022/01/16 03:47:28;;;;;;;17.98;8.63;;;;;;;-0.51;99.76;100000.56;4982101;28;20022;-60
2022/01/16 03:49:54;;;;;;;19.17;9.18;;;;;;;-0.57;99.87;99996.72;4980641;28;20047;-61
2022/01/16 03:52:19;;;;;;;11.73;6.53;;;;;;;-0.58;99.92;99995.06;4985794;28;20043;-60
2022/01/16 03:54:44;;;;;;;12.48;6.32;;;;;;;-0.60;99.71;100001.47;4977289;28;20357;-60
2022/01/16 03:57:10;;;;;;;19.77;9.65;;;;;;;-0.60;100.00;99985.66;4979774;28;20070;-62
2022/01/16 03:59:35;;;;;;;19.27;10.00;;;;;;;-0.62;100.00;99992.88;4983896;28;20062;-61
2022/01/16 04:02:01;;;;;;;22.38;10.15;;;;;;;-0.61;100.00;99990.09;4981573;28;20439;-62
2022/01/16 04:04:26;;;;;;;20.58;10.20;;;;;;;-0.57;100.00;99995.91;4983245;28;20037;-62
2022/01/16 04:06:52;;;;;;;20.08;9.57;;;;;;;-0.57;100.00;100006.44;4984505;28;20149;-62
2022/01/16 04:09:18;;;;;;;23.05;10.30;;;;;;;-0.55;100.00;100010.59;4979133;28;20117;-62
2022/01/16 04:11:55;;;;;;;22.85;10.45;;;;;;;-0.59;100.00;100003.13;4983865;28;20905;-61
2022/01/16 04:14:26;;;;;;;23.30;10.45;;;;;;;-0.56;100.00;100018.63;4978742;28;20031;-61
2022/01/16 04:16:52;;;;;;;21.33;10.25;;;;;;;-0.54;100.00;100014.03;4984559;28;20050;-60
2022/01/16 04:19:18;;;;;;;23.60;11.55;;;;;;;-0.57;100.00;100006.44;4984553;28;20069;-61
2022/01/16 04:21:43;;;;;;;23.13;10.48;;;;;;;-0.47;100.00;100012.47;4985187;28;20491;-61
2022/01/16 04:24:09;;;;;;;19.65;10.65;;;;;;;-0.49;99.60;100009.13;4983076;28;20031;-60
2022/01/16 04:26:34;;;;;;;24.50;9.45;;;;;;;-0.39;100.00;100014.31;4982550;28;20030;-61
2022/01/16 04:29:00;;;;;;;16.42;7.28;;;;;;;-0.46;98.98;100009.66;4991111;28;20030;-60
2022/01/16 04:31:25;;;;;;;18.80;9.52;;;;;;;-0.48;98.67;100010.78;4981064;28;20558;-61
2022/01/16 04:33:50;;;;;;;13.60;6.28;;;;;;;-0.58;99.57;99994.25;4983827;28;20038;-61
2022/01/16 04:36:16;;;;;;;23.02;11.35;;;;;;;-0.54;100.00;100006.13;4978722;28;20039;-60
2022/01/16 04:38:46;;;;;;;18.10;9.60;;;;;;;-0.60;100.00;100017.25;4998055;28;20030;-62
2022/01/16 04:43:57;;;;;;;20.90;11.40;;;;;;;-0.55;100.00;100007.09;4983282;28;20056;-63
2022/01/16 04:46:24;;;;;;;25.48;11.18;;;;;;;-0.68;100.00;100013.56;4982818;28;20042;-63
2022/01/16 04:48:50;;;;;;;18.67;10.30;;;;;;;-0.62;100.00;100020.06;4980650;28;20544;-61
2022/01/16 04:51:15;;;;;;;21.42;10.73;;;;;;;-0.56;100.00;100031.78;4983050;28;20050;-62
2022/01/16 04:53:41;;;;;;;23.23;11.50;;;;;;;-0.59;100.00;100040.00;4982995;28;20483;-62
2022/01/16 04:56:07;;;;;;;18.48;9.80;;;;;;;-0.49;100.00;100046.00;4972682;28;20074;-61
2022/01/16 04:58:33;;;;;;;19.23;10.13;;;;;;;-0.51;100.00;100040.88;4967123;28;20041;-61
2022/01/16 05:00:58;;;;;;;18.50;9.63;;;;;;;-0.48;99.73;100037.13;4996275;28;20153;-61
2022/01/16 05:03:24;;;;;;;20.48;11.18;;;;;;;-0.50;99.52;100046.97;4982359;28;20620;-61
2022/01/16 05:05:50;;;;;;;20.00;10.20;;;;;;;-0.49;99.56;100043.38;4983830;28;20104;-61
2022/01/16 05:08:15;;;;;;;23.13;10.50;;;;;;;-0.43;99.71;100056.75;4975691;28;20035;-61
2022/01/16 05:10:40;;;;;;;23.27;11.02;;;;;;;-0.53;99.33;100050.72;4983593;28;20436;-61
2022/01/16 05:18:33;;;;;;;28.13;11.75;;;;;;;-0.49;99.58;100051.28;4981837;28;19925;-61
2022/01/16 05:20:59;;;;;;;28.00;13.27;;;;;;;-0.57;99.35;100048.56;4983240;28;20046;-61
2022/01/16 05:23:24;;;;;;;29.70;13.98;;;;;;;-0.51;99.97;100051.41;4979588;28;20027;-61
2022/01/16 05:25:49;;;;;;;29.63;13.75;;;;;;;-0.46;99.49;100061.50;4980705;28;20038;-61
2022/01/16 05:28:15;;;;;;;32.22;14.30;;;;;;;-0.48;98.88;100063.47;4976809;28;20080;-61
2022/01/16 05:30:40;;;;;;;29.52;14.18;;;;;;;-0.42;98.69;100062.88;4984715;28;20038;-61
2022/01/16 05:33:07;;;;;;;33.17;14.35;;;;;;;-0.52;98.97;100062.13;4984567;28;20030;-61
2022/01/16 05:35:32;;;;;;;30.30;14.38;;;;;;;-0.44;99.15;100054.28;4993667;28;20047;-61
2022/01/16 05:37:58;;;;;;;34.58;15.13;;;;;;;-0.47;98.95;100046.69;4981403;28;20088;-61
2022/01/16 05:40:23;;;;;;;33.55;15.30;;;;;;;-0.48;99.34;100058.19;4977190;28;20053;-61
2022/01/16 05:42:49;;;;;;;35.22;14.77;;;;;;;-0.43;98.88;100055.94;4980202;28;20034;-61
2022/01/16 05:45:14;;;;;;;32.55;15.48;;;;;;;-0.41;99.15;100061.06;4984043;28;20034;-61
2022/01/16 05:47:39;;;;;;;35.28;15.52;;;;;;;-0.37;98.79;100065.88;4983200;28;20026;-61
2022/01/16 05:50:05;;;;;;;35.83;16.35;;;;;;;-0.41;99.11;100059.25;4983078;28;20050;-61
2022/01/16 05:52:31;;;;;;;39.80;16.30;;;;;;;-0.36;99.10;100056.97;4978321;28;20034;-61
2022/01/16 05:54:56;;;;;;;38.15;17.40;;;;;;;-0.43;99.18;100055.94;4978566;28;20061;-61
2022/01/16 05:57:22;;;;;;;41.72;16.40;;;;;;;-0.36;99.15;100064.88;4983480;28;20042;-61
2022/01/16 05:59:47;;;;;;;40.58;15.45;;;;;;;-0.37;99.03;100070.31;4982531;28;20031;-61
2022/01/16 06:02:13;;;;;;;49.28;18.02;;;;;;;-0.36;98.57;100067.53;4982086;28;20042;-61
2022/01/16 06:04:38;;;;;;;39.80;16.55;;;;;;;-0.23;99.50;100061.84;4982786;28;20027;-61
2022/01/16 06:07:05;;;;;;;33.10;14.60;;;;;;;-0.29;98.07;100060.66;4979591;28;20045;-60
2022/01/16 06:09:30;;;;;;;41.22;17.35;;;;;;;-0.27;98.27;100065.78;4969372;28;20038;-61
2022/01/16 06:11:57;;;;;;;38.13;16.60;;;;;;;-0.22;98.60;100069.63;4972907;28;20050;-60
2022/01/16 06:14:23;;;;;;;39.03;16.98;;;;;;;-0.32;98.46;100065.44;4978425;28;20030;-61
2022/01/16 06:16:48;;;;;;;50.67;19.90;;;;;;;-0.34;98.48;100076.09;4982032;28;20049;-60
2022/01/16 06:19:14;;;;;;;38.08;15.23;;;;;;;-0.32;98.69;100074.16;4981634;28;20037;-61
2022/01/16 06:21:39;;;;;;;42.42;17.35;;;;;;;-0.22;99.12;100082.81;4977226;28;20042;-61
2022/01/16 06:24:05;;;;;;;40.85;17.70;;;;;;;-0.30;98.22;100093.28;4980882;28;20467;-61
2022/01/16 06:26:31;;;;;;;44.22;17.65;;;;;;;-0.25;98.07;100091.00;4982162;28;20488;-61
2022/01/16 06:28:56;;;;;;;42.90;16.88;;;;;;;-0.27;98.12;100100.03;4980587;28;20045;-61
2022/01/16 06:31:22;;;;;;;44.33;17.23;;;;;;;-0.27;97.90;100103.50;4980773;28;20050;-61
2022/01/16 06:33:47;;;;;;;44.83;17.13;;;;;;;-0.23;97.38;100110.09;4983271;28;20406;-60
2022/01/16 06:36:13;;;;;;;41.35;17.40;;;;;;;-0.23;97.39;100109.28;4978811;28;20046;-61
2022/01/16 06:38:38;;;;;;;45.33;19.30;;;;;;;-0.29;97.85;100115.16;4979414;28;20038;-61
2022/01/16 06:41:04;;;;;;;48.25;17.95;;;;;;;-0.30;98.09;100119.63;4977924;28;20109;-61
2022/01/16 06:43:29;;;;;;;46.20;16.67;;;;;;;-0.16;97.90;100131.41;4975746;28;20093;-60
2022/01/16 06:45:56;;;;;;;40.40;17.13;;;;;;;-0.10;97.23;100124.72;4984237;28;20050;-60
2022/01/16 06:48:22;;;;;;;46.83;17.63;;;;;;;-0.12;97.02;100131.97;4980277;28;20109;-61
2022/01/16 06:50:47;;;;;;;46.60;18.70;;;;;;;-0.17;96.64;100142.13;4983013;28;20074;-61
2022/01/16 06:53:12;;;;;;;45.58;17.67;;;;;;;-0.19;96.68;100149.34;4982908;28;20084;-61
2022/01/16 06:55:38;;;;;;;43.80;17.88;;;;;;;-0.16;97.13;100151.69;4996172;28;20049;-62
2022/01/16 06:58:03;;;;;;;39.95;17.60;;;;;;;-0.15;96.88;100148.91;4982900;28;20045;-62
2022/01/16 07:00:29;;;;;;;45.53;17.88;;;;;;;-0.22;97.41;100140.75;4978674;28;20050;-61
2022/01/16 07:02:54;;;;;;;40.42;17.17;;;;;;;-0.19;97.08;100130.91;4978669;28;20027;-60
2022/01/16 07:05:20;;;;;;;41.53;17.02;;;;;;;-0.20;97.33;100138.00;4980661;28;20064;-62
2022/01/16 07:07:45;;;;;;;44.05;17.30;;;;;;;-0.15;96.83;100140.16;4977626;28;20042;-61
2022/01/16 07:10:11;;;;;;;45.33;17.20;;;;;;;-0.10;97.26;100140.53;4976504;28;20031;-61
2022/01/16 07:12:36;;;;;;;43.42;17.90;;;;;;;-0.09;96.91;100156.19;4982128;28;20038;-61
2022/01/16 07:15:02;;;;;;;46.40;18.08;;;;;;;-0.03;96.26;100168.75;4978809;28;20038;-61
2022/01/16 07:17:28;;;;;;;49.90;18.45;;;;;;;-0.03;96.10;100171.41;4982539;28;20087;-61
2022/01/16 07:19:53;;;;;;;47.88;19.52;;;;;;;-0.09;96.09;100179.09;4980719;28;20375;-60
2022/01/16 07:22:21;;;;;;;47.58;19.27;;;;;;;-0.06;96.00;100178.78;4979837;28;20409;-61
2022/01/16 07:24:48;;;;;;;46.53;18.70;;;;;;;0.00;95.59;100188.75;4977059;28;20041;-61
2022/01/16 07:27:13;;;;;;;44.80;18.42;;;;;;;-0.08;95.79;100181.56;4978066;28;20509;-61
2022/01/16 07:29:39;;;;;;;45.53;16.23;;;;;;;-0.09;96.29;100184.38;4981372;28;20107;-61
2022/01/16 07:32:06;;;;;;;53.42;19.58;;;;;;;-0.11;96.82;100181.03;4979960;28;20937;-61
2022/01/16 07:34:32;;;;;;;42.15;18.30;;;;;;;-0.08;96.21;100192.09;4973850;28;20039;-61
2022/01/16 07:36:58;;;;;;;49.55;17.95;;;;;;;-0.09;96.39;100202.81;4976309;28;20054;-61
2022/01/16 07:39:23;;;;;;;52.38;19.30;;;;;;;-0.09;97.47;100200.19;4981063;28;20068;-61
2022/01/16 07:41:49;;;;;;;52.80;19.02;;;;;;;-0.12;97.21;100189.94;4980019;28;20408;-61
2022/01/16 07:44:14;;;;;;;57.38;22.10;;;;;;;-0.10;96.92;100190.59;4981369;28;20037;-61
2022/01/16 07:46:40;;;;;;;48.78;20.05;;;;;;;-0.03;97.30;100203.03;4978903;28;20058;-61
2022/01/16 07:49:05;;;;;;;47.80;20.45;;;;;;;-0.03;96.97;100199.56;4980773;28;20058;-61
2022/01/16 07:51:32;;;;;;;56.92;23.48;;;;;;;-0.08;97.44;100186.00;4980007;28;20046;-61
2022/01/16 07:53:57;;;;;;;37.10;14.00;;;;;;;-0.11;98.00;100184.50;4978424;28;20034;-61
2022/01/16 07:56:23;;;;;;;54.10;20.27;;;;;;;-0.10;97.58;100180.06;4980029;28;20042;-61
2022/01/16 07:58:48;;;;;;;34.38;15.80;;;;;;;-0.04;97.70;100182.09;4971001;28;20042;-61
2022/01/16 08:01:14;;;;;;;62.17;21.73;;;;;;;-0.10;97.89;100177.41;4979654;28;20070;-61
2022/01/16 08:03:39;;;;;;;53.38;21.30;;;;;;;-0.07;97.95;100163.97;4992555;28;20034;-61
2022/01/16 08:06:04;;;;;;;56.85;20.55;;;;;;;0.01;98.50;100164.03;4980901;28;20038;-61
2022/01/16 08:08:30;;;;;;;65.80;22.38;;;;;;;0.01;98.23;100156.13;4981144;28;20049;-63
2022/01/16 08:10:55;;;;;;;49.13;18.65;;;;;;;-0.04;98.50;100156.56;4999177;28;20587;-61
2022/01/16 08:13:21;;;;;;;56.35;21.45;;;;;;;0.01;99.81;100164.03;4985138;28;20402;-61
2022/01/16 08:15:46;;;;;;;56.85;22.30;;;;;;;0.13;99.88;100162.81;4977902;28;20042;-61
2022/01/16 08:18:12;;;;;;;55.92;21.40;;;;;;;0.15;98.28;100160.00;4964614;28;20039;-61
2022/01/16 08:20:37;;;;;;;53.65;20.23;;;;;;;0.06;98.31;100164.41;4981166;28;20065;-61
2022/01/16 08:23:03;;;;;;;48.92;19.90;;;;;;;0.09;98.39;100165.91;4984915;28;20124;-61
2022/01/16 08:25:28;;;;;;;64.30;22.88;;;;;;;0.06;98.08;100161.75;4983404;28;20069;-61
2022/01/16 08:27:54;;;;;;;64.90;24.80;;;;;;;0.05;97.90;100168.03;4981266;28;20042;-61
2022/01/16 08:30:19;;;;;;;63.45;22.73;;;;;;;0.10;98.58;100163.13;4975296;28;20041;-61
2022/01/16 08:32:45;;;;;;;59.20;21.38;;;;;;;0.12;98.95;100163.78;4978783;28;20752;-61
2022/01/16 08:35:11;;;;;;;63.58;21.63;;;;;;;0.08;99.01;100164.25;4974620;28;20101;-61
2022/01/16 08:37:37;;;;;;;62.40;22.48;;;;;;;0.14;99.77;100175.00;4978960;28;20125;-61
2022/01/16 08:40:03;;;;;;;59.75;21.25;;;;;;;0.20;99.32;100174.41;4975059;28;20041;-61
2022/01/16 08:42:29;;;;;;;63.60;23.15;;;;;;;0.08;100.00;100172.16;4970098;28;20034;-61
2022/01/16 08:44:55;;;;;;;64.32;21.63;;;;;;;-0.06;100.00;100176.16;4976974;28;20719;-61
2022/01/16 08:47:20;;;;;;;63.20;23.35;;;;;;;-0.05;100.00;100183.06;4975903;28;20087;-61
2022/01/16 08:49:45;;;;;;;49.33;18.48;;;;;;;-0.03;100.00;100187.19;4983180;28;20050;-61
2022/01/16 08:52:11;;;;;;;65.75;23.02;;;;;;;0.05;100.00;100201.44;4973821;28;20053;-61
2022/01/16 08:54:37;;;;;;;63.63;22.83;;;;;;;0.08;100.00;100206.44;4976366;28;20084;-61
2022/01/16 08:57:03;;;;;;;72.40;23.13;;;;;;;0.10;100.00;100204.47;4981178;28;20042;-61
2022/01/16 08:59:28;;;;;;;61.17;22.20;;;;;;;0.05;100.00;100207.56;4981329;28;20044;-62
2022/01/16 09:01:54;;;;;;;72.15;24.00;;;;;;;0.10;100.00;100215.84;4981312;28;20092;-60
2022/01/16 09:04:19;;;;;;;81.82;26.00;;;;;;;0.10;100.00;100210.59;4983459;28;20030;-61
2022/01/16 09:06:44;;;;;;;57.10;18.00;;;;;;;0.06;100.00;100211.03;4982137;28;20133;-62
2022/01/16 09:09:10;;;;;;;81.05;24.08;;;;;;;0.11;100.00;100217.50;4998396;28;20034;-62
2022/01/16 09:11:35;;;;;;;77.40;22.55;;;;;;;0.07;100.00;100226.69;4984152;28;20057;-62
2022/01/16 09:14:01;;;;;;;66.55;22.20;;;;;;;0.13;100.00;100222.63;4983957;28;20396;-62
2022/01/16 09:16:26;;;;;;;71.85;22.48;;;;;;;0.17;100.00;100227.44;4982642;28;20073;-62
2022/01/16 09:18:52;;;;;;;74.68;22.25;;;;;;;0.03;100.00;100227.97;4981959;28;20097;-62
2022/01/16 09:21:17;;;;;;;67.32;22.00;;;;;;;0.02;100.00;100234.19;4976118;28;20053;-62
2022/01/16 09:23:44;;;;;;;71.47;23.23;;;;;;;0.06;100.00;100235.56;4978844;28;20459;-64
2022/01/16 09:26:10;;;;;;;69.13;22.95;;;;;;;0.13;100.00;100241.91;4980407;28;20535;-61
2022/01/16 09:28:35;;;;;;;70.63;22.63;;;;;;;0.15;100.00;100239.97;4981072;28;20034;-61
2022/01/16 09:31:01;;;;;;;87.05;25.23;;;;;;;0.19;100.00;100241.28;4999294;28;20104;-61
2022/01/16 09:33:26;;;;;;;72.40;25.10;;;;;;;0.30;100.00;100252.59;4978412;28;20038;-61
2022/01/16 09:35:51;;;;;;;57.35;20.00;;;;;;;0.35;100.00;100251.19;4983971;28;20401;-62
2022/01/16 09:38:18;;;;;;;68.10;22.88;;;;;;;0.43;100.00;100245.97;4980339;28;20502;-61
2022/01/16 09:40:44;;;;;;;68.22;22.20;;;;;;;0.48;100.00;100252.63;4965558;28;20045;-61
2022/01/16 09:43:10;;;;;;;64.43;20.80;;;;;;;0.43;100.00;100247.78;4982534;28;20041;-61
2022/01/16 09:45:35;;;;;;;61.75;19.27;;;;;;;0.51;100.00;100250.47;4977766;28;20065;-61
2022/01/16 09:48:01;;;;;;;64.70;21.15;;;;;;;0.47;100.00;100258.84;4974616;28;20070;-61
2022/01/16 09:50:27;;;;;;;59.40;20.95;;;;;;;0.49;100.00;100255.06;4977169;28;20493;-61
2022/01/16 09:52:52;;;;;;;65.38;21.10;;;;;;;0.55;100.00;100266.81;4971668;28;20038;-62
2022/01/16 09:55:18;;;;;;;61.42;18.27;;;;;;;0.57;100.00;100270.97;4980763;28;20041;-62
2022/01/16 09:57:43;;;;;;;78.72;24.98;;;;;;;0.61;100.00;100264.41;4983410;28;20065;-62
2022/01/16 10:00:12;;;;;;;64.53;21.65;;;;;;;0.68;100.00;100285.75;4982798;28;20622;-62
2022/01/16 10:02:37;;;;;;;74.93;24.70;;;;;;;0.67;100.00;100280.63;4975528;28;20034;-62
2022/01/16 10:05:36;;;;;;;63.20;21.10;;;;;;;0.73;100.00;100282.66;4979694;28;20049;-63
2022/01/16 10:08:03;;;;;;;68.03;23.40;;;;;;;0.71;99.75;100274.88;4995270;28;20104;-64
2022/01/16 10:10:40;;;;;;;60.00;21.08;;;;;;;0.66;100.00;100271.06;4982691;28;20485;-61
2022/01/16 10:13:42;;;;;;;55.25;17.88;;;;;;;0.71;100.00;100259.06;4981098;28;20047;-61
2022/01/16 10:16:07;;;;;;;59.25;20.88;;;;;;;0.83;99.79;100270.19;4959475;28;20074;-60
2022/01/16 10:18:37;;;;;;;63.65;20.80;;;;;;;0.85;99.27;100262.97;4983738;28;20088;-62
2022/01/16 10:21:03;;;;;;;58.45;19.20;;;;;;;0.92;99.16;100256.06;4982633;28;20077;-62
2022/01/16 10:23:28;;;;;;;63.97;22.38;;;;;;;0.95;99.20;100252.28;4982980;28;20061;-62
2022/01/16 10:25:54;;;;;;;61.63;19.48;;;;;;;0.96;98.39;100257.41;4976789;28;20404;-62
2022/01/16 10:28:24;;;;;;;51.67;20.15;;;;;;;1.10;99.13;100249.91;4978814;28;20030;-62
2022/01/16 10:30:54;;;;;;;67.93;22.37;;;;;;;1.19;98.22;100254.25;4977527;28;20035;-62
2022/01/16 10:33:28;;;;;;;51.33;20.65;;;;;;;1.33;97.21;100248.41;4981517;28;20034;-62
2022/01/16 10:35:54;;;;;;;53.08;19.45;;;;;;;1.46;96.75;100240.84;4980398;28;20046;-62
2022/01/16 10:38:25;;;;;;;51.17;19.45;;;;;;;1.51;96.01;100249.13;4982977;28;20041;-62
2022/01/16 10:40:51;;;;;;;50.05;19.02;;;;;;;1.64;96.74;100245.22;4981739;28;20121;-62
2022/01/16 10:43:43;;;;;;;52.38;20.08;;;;;;;1.60;96.27;100234.16;4983329;28;20034;-62
2022/01/16 10:46:10;;;;;;;64.72;22.63;;;;;;;1.49;96.03;100229.97;4980388;28;20057;-62
2022/01/16 10:48:36;;;;;;;54.05;20.23;;;;;;;1.48;96.03;100236.25;4979575;28;20546;-62
2022/01/16 10:51:01;;;;;;;49.60;19.02;;;;;;;1.64;95.49;100242.56;4977200;28;20046;-63
2022/01/16 10:53:29;;;;;;;54.10;20.38;;;;;;;1.48;96.08;100249.44;4978879;28;20440;-62
2022/01/16 10:55:57;;;;;;;50.83;20.60;;;;;;;1.38;95.89;100251.38;4976172;28;20089;-62
2022/01/16 10:58:28;;;;;;;55.65;19.85;;;;;;;1.42;96.62;100244.81;4980269;28;20060;-62
2022/01/16 11:01:05;;;;;;;56.70;20.50;;;;;;;1.36;97.04;100250.72;4980318;28;20050;-62
2022/01/16 11:03:59;;;;;;;59.28;19.13;;;;;;;1.36;96.46;100261.28;4982275;28;20065;-62
2022/01/16 11:06:27;;;;;;;59.25;20.60;;;;;;;1.31;96.67;100253.00;4978303;28;20042;-62
2022/01/16 11:08:56;;;;;;;57.40;20.25;;;;;;;1.40;96.60;100257.34;4980394;28;20037;-62
2022/01/16 11:11:22;;;;;;;67.13;23.02;;;;;;;1.39;97.02;100250.38;4982235;28;20046;-62
2022/01/16 11:13:48;;;;;;;55.95;19.90;;;;;;;1.44;97.24;100258.66;4982889;28;20588;-62
2022/01/16 11:16:13;;;;;;;65.50;22.00;;;;;;;1.32;97.28;100259.09;4982307;28;20177;-62
2022/01/16 11:18:40;;;;;;;62.25;22.17;;;;;;;1.21;97.42;100253.09;4983000;28;20035;-62
2022/01/16 11:26:21;;;;;;;48.67;17.23;;;;;;;1.27;97.71;100262.22;4981281;28;20042;-62
2022/01/16 11:28:47;;;;;;;60.63;20.80;;;;;;;1.32;97.65;100264.38;4979114;28;20026;-61
2022/01/16 11:31:13;;;;;;;50.20;18.83;;;;;;;1.28;98.09;100261.25;4980764;28;20510;-62
2022/01/16 11:33:39;;;;;;;48.58;18.27;;;;;;;1.43;97.92;100262.31;4972907;28;20041;-62
2022/01/16 11:36:16;;;;;;;63.60;22.02;;;;;;;1.42;97.16;100265.94;4979836;28;20034;-62
2022/01/16 11:38:45;;;;;;;68.65;21.95;;;;;;;1.37;98.09;100256.81;4980098;28;20030;-62
2022/01/16 11:41:14;;;;;;;67.03;25.55;;;;;;;1.30;97.82;100261.91;4993864;28;20077;-62
2022/01/16 11:43:40;;;;;;;59.10;19.58;;;;;;;1.31;98.42;100262.75;4982932;28;20029;-62
2022/01/16 11:46:10;;;;;;;69.05;23.05;;;;;;;1.55;98.52;100265.50;4984895;28;20038;-61
2022/01/16 11:48:50;;;;;;;40.70;16.17;;;;;;;1.39;97.84;100262.78;4985468;28;20050;-62
2022/01/16 11:51:38;;;;;;;52.90;17.95;;;;;;;1.46;98.47;100256.69;4981323;28;20447;-62